createdAt,value
2022-09-29T00:01:57.105Z,7.47
2022-09-29T00:05:20.392Z,6.72
2022-09-29T00:08:43.395Z,7.40
2022-09-29T00:12:06.341Z,7.80
2022-09-29T00:15:30.596Z,9.20
2022-09-29T00:18:56.021Z,7.30
2022-09-29T00:22:18.925Z,6.93
2022-09-29T00:25:41.850Z,8.07
2022-09-29T00:29:05.128Z,7.95
2022-09-29T00:32:29.373Z,8.50
2022-09-29T00:36:01.281Z,9.07
2022-09-29T00:39:24.347Z,8.52
2022-09-29T00:42:47.231Z,8.32
2022-09-29T00:46:10.336Z,6.45
2022-09-29T00:49:39.637Z,8.30
2022-09-29T00:53:04.127Z,7.50
2022-09-29T00:56:27.342Z,7.57
2022-09-29T00:59:54.693Z,7.60
2022-09-29T01:03:21.761Z,6.57
2022-09-29T01:06:49.672Z,8.25
2022-09-29T01:10:14.191Z,8.98
2022-09-29T01:13:37.328Z,7.55
2022-09-29T01:17:00.902Z,8.05
2022-09-29T01:20:25.591Z,8.45
2022-09-29T01:24:14.772Z,6.85
2022-09-29T01:28:09.626Z,7.78
2022-09-29T01:31:43.111Z,8.07
2022-09-29T01:35:15.486Z,8.13
2022-09-29T01:38:56.509Z,7.97
2022-09-29T01:42:23.197Z,7.60
2022-09-29T01:45:52.609Z,6.53
2022-09-29T01:49:18.756Z,6.63
2022-09-29T01:52:45.286Z,7.10
2022-09-29T01:56:12.857Z,6.97
2022-09-29T01:59:44.119Z,7.18
2022-09-29T02:03:10.984Z,6.93
2022-09-29T02:06:40.163Z,7.75
2022-09-29T02:10:06.062Z,7.22
2022-09-29T02:13:32.270Z,6.53
2022-09-29T02:17:00.950Z,6.32
2022-09-29T02:20:24.379Z,7.57
2022-09-29T02:23:48.662Z,6.85
2022-09-29T02:27:12.134Z,5.75
2022-09-29T02:30:35.654Z,8.18
2022-09-29T02:33:58.832Z,7.05
2022-09-29T02:37:43.287Z,6.28
2022-09-29T02:41:14.267Z,6.70
2022-09-29T02:44:51.585Z,7.25
2022-09-29T02:48:35.890Z,6.50
2022-09-29T02:52:02.056Z,6.35
2022-09-29T02:55:31.866Z,5.40
2022-09-29T02:59:01.427Z,6.15
2022-09-29T03:02:25.676Z,7.55
2022-09-29T03:05:48.791Z,7.13
2022-09-29T03:09:11.699Z,6.60
2022-09-29T03:12:34.665Z,6.78
2022-09-29T03:15:58.933Z,7.45
2022-09-29T03:19:21.820Z,6.05
2022-09-29T03:22:44.702Z,5.57
2022-09-29T03:26:07.639Z,5.70
2022-09-29T03:29:31.606Z,5.72
2022-09-29T03:32:55.832Z,5.45
2022-09-29T03:36:18.794Z,5.55
2022-09-29T03:39:41.690Z,6.60
2022-09-29T03:43:04.803Z,6.00
2022-09-29T03:46:27.806Z,5.93
2022-09-29T03:49:52.087Z,6.30
2022-09-29T03:53:15.625Z,6.45
2022-09-29T03:56:39.245Z,5.53
2022-09-29T04:00:02.637Z,5.93
2022-09-29T04:03:31.121Z,4.43
2022-09-29T04:06:55.339Z,4.82
2022-09-29T04:10:18.362Z,5.82
2022-09-29T04:13:41.230Z,5.78
2022-09-29T04:17:04.161Z,6.07
2022-09-29T04:20:28.321Z,6.95
2022-09-29T04:23:52.593Z,6.40
2022-09-29T04:27:15.809Z,5.07
2022-09-29T04:30:38.881Z,5.93
2022-09-29T04:34:01.771Z,5.95
2022-09-29T04:37:24.720Z,5.22
2022-09-29T04:40:49.540Z,5.53
2022-09-29T04:44:12.465Z,5.32
2022-09-29T04:47:35.337Z,5.03
2022-09-29T04:50:58.298Z,5.93
2022-09-29T04:54:21.217Z,4.32
2022-09-29T04:57:46.361Z,5.18
2022-09-29T05:01:12.825Z,4.90
2022-09-29T05:04:35.808Z,5.07
2022-09-29T05:07:59.462Z,4.97
2022-09-29T05:11:22.329Z,6.80
2022-09-29T05:14:46.557Z,5.35
2022-09-29T05:18:09.438Z,6.35
2022-09-29T05:21:32.353Z,5.72
2022-09-29T05:24:55.228Z,5.95
2022-09-29T05:28:18.379Z,6.43
2022-09-29T05:31:42.663Z,7.28
2022-09-29T05:35:06.213Z,5.30
2022-09-29T05:38:29.907Z,5.72
2022-09-29T05:41:55.483Z,6.20
2022-09-29T05:45:21.770Z,8.18
2022-09-29T05:48:46.762Z,8.77
2022-09-29T05:52:09.679Z,9.10
2022-09-29T05:55:32.546Z,8.80
2022-09-29T05:58:56.937Z,10.30
2022-09-29T06:02:19.886Z,11.20
2022-09-29T06:05:44.269Z,9.82
2022-09-29T06:09:08.125Z,11.52
2022-09-29T06:12:36.207Z,11.43
2022-09-29T06:15:59.882Z,10.93
2022-09-29T06:19:22.811Z,11.65
2022-09-29T06:22:47.737Z,14.25
2022-09-29T06:26:13.173Z,11.18
2022-09-29T06:29:36.089Z,11.38
2022-09-29T06:32:58.985Z,11.05
2022-09-29T06:36:42.061Z,11.20
2022-09-29T06:40:11.062Z,10.07
2022-09-29T06:43:34.476Z,10.23
2022-09-29T06:46:58.168Z,7.65
2022-09-29T06:50:22.216Z,9.43
2022-09-29T06:53:45.442Z,8.95
2022-09-29T06:57:10.748Z,8.45
2022-09-29T07:00:34.560Z,12.23
2022-09-29T07:03:57.537Z,13.88
2022-09-29T07:07:20.438Z,12.45
2022-09-29T07:10:43.319Z,9.68
2022-09-29T07:14:07.564Z,12.40
2022-09-29T07:17:30.520Z,12.75
2022-09-29T07:20:53.406Z,11.23
2022-09-29T07:24:16.645Z,11.32
2022-09-29T07:27:39.601Z,10.60
2022-09-29T07:31:13.765Z,10.90
2022-09-29T07:34:38.160Z,9.38
2022-09-29T07:38:01.229Z,9.73
2022-09-29T07:41:24.527Z,10.20
2022-09-29T07:44:52.053Z,9.13
2022-09-29T07:48:17.101Z,9.07
2022-09-29T07:51:39.978Z,9.57
2022-09-29T07:55:02.966Z,8.90
2022-09-29T07:58:25.932Z,8.63
2022-09-29T08:01:48.833Z,8.48
2022-09-29T08:05:13.342Z,7.55
2022-09-29T08:08:37.078Z,8.18
2022-09-29T08:12:07.880Z,7.85
2022-09-29T08:15:31.386Z,7.47
2022-09-29T08:18:54.324Z,8.25
2022-09-29T08:22:18.537Z,7.13
2022-09-29T08:25:52.600Z,7.68
2022-09-29T08:29:17.827Z,7.13
2022-09-29T08:32:40.781Z,7.47
2022-09-29T08:36:06.138Z,8.48
2022-09-29T08:39:31.453Z,8.15
2022-09-29T08:43:04.974Z,7.72
2022-09-29T08:46:36.033Z,7.43
2022-09-29T08:50:03.096Z,9.40
2022-09-29T08:53:29.656Z,7.03
2022-09-29T08:56:54.090Z,8.10
2022-09-29T09:00:19.085Z,8.50
2022-09-29T09:04:11.776Z,8.23
2022-09-29T09:07:44.034Z,7.47
2022-09-29T09:11:20.222Z,7.47
2022-09-29T09:15:03.403Z,7.03
2022-09-29T09:18:38.128Z,7.28
2022-09-29T09:22:12.116Z,6.53
2022-09-29T09:25:36.928Z,6.75
2022-09-29T09:29:05.105Z,8.07
2022-09-29T09:32:32.216Z,7.80
2022-09-29T09:35:59.481Z,7.32
2022-09-29T09:39:28.142Z,7.18
2022-09-29T09:42:58.319Z,6.75
2022-09-29T09:46:30.966Z,6.53
2022-09-29T09:50:03.833Z,6.78
2022-09-29T09:53:32.426Z,8.20
2022-09-29T09:57:08.621Z,8.80
2022-09-29T10:00:36.888Z,7.53
2022-09-29T10:04:02.006Z,7.05
2022-09-29T10:07:30.036Z,6.68
2022-09-29T10:10:58.480Z,6.40
2022-09-29T10:14:25.948Z,7.53
2022-09-29T10:17:59.647Z,8.35
2022-09-29T10:21:24.317Z,8.95
2022-09-29T10:24:48.558Z,8.40
2022-09-29T10:28:15.272Z,8.88
2022-09-29T10:31:38.325Z,6.90
2022-09-29T10:35:06.790Z,6.90
2022-09-29T10:38:29.780Z,6.75
2022-09-29T10:41:54.716Z,6.85
2022-09-29T10:45:21.436Z,6.25
2022-09-29T10:48:44.322Z,7.28
2022-09-29T10:52:16.763Z,7.82
2022-09-29T10:55:51.160Z,7.45
2022-09-29T10:59:16.914Z,8.27
2022-09-29T11:02:43.794Z,7.43
2022-09-29T11:06:11.731Z,7.35
2022-09-29T11:09:40.599Z,8.02
2022-09-29T11:13:46.877Z,7.78
2022-09-29T11:17:24.394Z,7.88
2022-09-29T11:20:54.013Z,9.05
2022-09-29T11:24:30.115Z,8.18
2022-09-29T11:28:14.166Z,10.45
2022-09-29T11:31:56.573Z,8.70
2022-09-29T11:35:34.515Z,8.30
2022-09-29T11:39:18.785Z,8.70
2022-09-29T11:43:01.658Z,9.23
2022-09-29T11:46:36.077Z,9.07
2022-09-29T11:50:14.221Z,8.68
2022-09-29T11:53:51.362Z,8.75
2022-09-29T11:57:21.929Z,7.85
2022-09-29T12:01:00.142Z,7.50
2022-09-29T12:04:35.177Z,7.82
2022-09-29T12:08:09.030Z,7.60
2022-09-29T12:12:05.242Z,7.78
2022-09-29T12:15:33.425Z,8.38
2022-09-29T12:19:05.010Z,8.93
2022-09-29T12:22:33.141Z,7.43
2022-09-29T12:26:05.184Z,8.15
2022-09-29T12:29:35.773Z,7.30
2022-09-29T12:33:03.297Z,8.45
2022-09-29T12:36:45.583Z,8.30
2022-09-29T12:40:15.092Z,8.80
2022-09-29T12:43:44.592Z,8.60
2022-09-29T12:47:16.092Z,7.40
2022-09-29T12:50:45.590Z,9.52
2022-09-29T12:54:15.813Z,7.95
2022-09-29T12:57:42.794Z,7.95
2022-09-29T13:01:22.121Z,7.97
2022-09-29T13:05:05.057Z,7.57
2022-09-29T13:08:41.253Z,8.65
2022-09-29T13:12:18.134Z,8.52
2022-09-29T13:15:59.093Z,7.90
2022-09-29T13:19:57.699Z,8.40
2022-09-29T13:23:46.639Z,9.75
2022-09-29T13:27:27.193Z,6.38
2022-09-29T13:30:50.459Z,7.65
2022-09-29T13:34:24.981Z,9.13
2022-09-29T13:37:51.406Z,7.85
2022-09-29T13:41:18.335Z,7.60
2022-09-29T13:44:42.119Z,8.38
2022-09-29T13:48:49.840Z,8.38
2022-09-29T13:52:31.104Z,8.43
2022-09-29T13:55:55.649Z,7.55
2022-09-29T13:59:26.308Z,8.65
2022-09-29T14:03:18.385Z,8.88
2022-09-29T14:06:48.343Z,7.18
2022-09-29T14:10:25.991Z,8.10
2022-09-29T14:13:55.268Z,8.07
2022-09-29T14:17:22.679Z,8.25
2022-09-29T14:20:59.990Z,7.90
2022-09-29T14:24:47.175Z,7.00
2022-09-29T14:28:14.065Z,7.72
2022-09-29T14:31:37.161Z,8.70
2022-09-29T14:35:02.871Z,7.45
2022-09-29T14:38:29.065Z,7.10
2022-09-29T14:41:52.529Z,6.97
2022-09-29T14:45:32.948Z,6.57
2022-09-29T14:49:24.981Z,7.30
2022-09-29T14:53:02.429Z,7.50
2022-09-29T14:56:49.600Z,6.57
2022-09-29T15:00:16.188Z,5.70
2022-09-29T15:03:46.994Z,7.20
2022-09-29T15:07:14.105Z,6.95
2022-09-29T15:10:42.676Z,5.57
2022-09-29T15:14:23.751Z,6.68
2022-09-29T15:17:55.442Z,6.32
2022-09-29T15:21:22.503Z,7.60
2022-09-29T15:25:06.947Z,6.72
2022-09-29T15:28:36.831Z,7.85
2022-09-29T15:31:59.860Z,6.57
2022-09-29T15:35:25.587Z,5.95
2022-09-29T15:38:52.009Z,5.40
2022-09-29T15:42:19.486Z,5.35
2022-09-29T15:45:54.655Z,6.18
2022-09-29T15:49:20.814Z,6.47
2022-09-29T15:52:43.821Z,6.38
2022-09-29T15:56:07.279Z,5.68
2022-09-29T15:59:42.588Z,5.97
2022-09-29T16:03:11.745Z,6.05
2022-09-29T16:06:37.261Z,5.10
2022-09-29T16:10:04.786Z,5.25
2022-09-29T16:13:31.053Z,5.90
2022-09-29T16:16:59.020Z,5.40
2022-09-29T16:20:28.195Z,5.65
2022-09-29T16:23:52.787Z,6.22
2022-09-29T16:27:42.756Z,6.82
2022-09-29T16:31:08.506Z,4.95
2022-09-29T16:34:33.689Z,6.55
2022-09-29T16:37:58.019Z,5.63
2022-09-29T16:41:34.540Z,5.85
2022-09-29T16:44:58.998Z,5.60
2022-09-29T16:48:23.009Z,5.03
2022-09-29T16:51:48.287Z,6.45
2022-09-29T16:55:20.909Z,6.40
2022-09-29T16:58:43.787Z,5.75
2022-09-29T17:02:10.993Z,6.10
2022-09-29T17:05:37.658Z,5.95
2022-09-29T17:09:00.840Z,5.90
2022-09-29T17:12:25.866Z,6.90
2022-09-29T17:15:51.500Z,6.43
2022-09-29T17:19:15.176Z,5.40
2022-09-29T17:22:38.152Z,6.13
2022-09-29T17:26:21.161Z,6.65
2022-09-29T17:29:46.030Z,6.80
2022-09-29T17:33:12.038Z,6.40
2022-09-29T17:36:35.097Z,8.50
2022-09-29T17:39:58.015Z,6.82
2022-09-29T17:43:23.347Z,7.55
2022-09-29T17:46:47.982Z,7.00
2022-09-29T17:50:22.951Z,6.95
2022-09-29T17:53:47.035Z,7.47
2022-09-29T17:57:20.800Z,7.00
2022-09-29T18:00:47.014Z,6.85
2022-09-29T18:04:11.361Z,10.52
2022-09-29T18:07:34.329Z,8.52
2022-09-29T18:10:59.062Z,8.65
2022-09-29T18:14:21.997Z,10.10
2022-09-29T18:17:45.567Z,9.25
2022-09-29T18:21:09.990Z,7.72
2022-09-29T18:24:33.175Z,8.82
2022-09-29T18:27:56.671Z,11.23
2022-09-29T18:31:25.170Z,11.70
2022-09-29T18:34:48.139Z,12.80
2022-09-29T18:38:13.145Z,12.10
2022-09-29T18:41:36.112Z,12.82
2022-09-29T18:44:59.117Z,13.05
2022-09-29T18:48:22.057Z,11.05
2022-09-29T18:51:44.958Z,12.82
2022-09-29T18:55:11.107Z,13.75
2022-09-29T18:58:34.008Z,12.52
2022-09-29T19:01:57.055Z,14.23
2022-09-29T19:05:23.558Z,12.45
2022-09-29T19:08:48.989Z,14.60
2022-09-29T19:12:13.741Z,14.25
2022-09-29T19:15:39.196Z,14.52
2022-09-29T19:19:04.449Z,15.27
2022-09-29T19:22:29.262Z,16.35
2022-09-29T19:25:53.872Z,15.88
2022-09-29T19:29:18.271Z,15.85
2022-09-29T19:32:42.230Z,17.58
2022-09-29T19:36:08.690Z,15.25
2022-09-29T19:39:31.833Z,18.42
2022-09-29T19:42:55.103Z,18.35
2022-09-29T19:46:20.867Z,15.95
2022-09-29T19:49:43.989Z,17.88
2022-09-29T19:53:06.682Z,18.48
2022-09-29T19:56:30.042Z,18.38
2022-09-29T19:59:53.026Z,18.08
2022-09-29T20:03:17.588Z,17.58
2022-09-29T20:06:40.553Z,18.88
2022-09-29T20:10:03.961Z,18.40
2022-09-29T20:13:26.997Z,17.02
2022-09-29T20:16:52.260Z,18.77
2022-09-29T20:20:17.775Z,19.52
2022-09-29T20:23:40.761Z,17.05
2022-09-29T20:27:03.713Z,17.02
2022-09-29T20:30:27.380Z,18.25
2022-09-29T20:33:50.611Z,17.65
2022-09-29T20:37:16.148Z,18.23
2022-09-29T20:40:39.085Z,19.08
2022-09-29T20:44:02.482Z,18.45
2022-09-29T20:47:25.840Z,17.27
2022-09-29T20:50:48.748Z,19.33
2022-09-29T20:54:14.063Z,19.17
2022-09-29T20:57:40.781Z,17.40
2022-09-29T21:01:15.665Z,20.40
2022-09-29T21:04:38.667Z,17.90
2022-09-29T21:08:01.844Z,19.08
2022-09-29T21:11:26.357Z,17.85
2022-09-29T21:14:49.805Z,21.20
2022-09-29T21:18:13.006Z,19.90
2022-09-29T21:21:36.132Z,18.25
2022-09-29T21:24:59.201Z,18.55
2022-09-29T21:28:23.881Z,17.58
2022-09-29T21:31:47.421Z,16.75
2022-09-29T21:35:11.038Z,19.55
2022-09-29T21:38:36.397Z,18.85
2022-09-29T21:41:59.428Z,19.20
2022-09-29T21:45:23.842Z,18.30
2022-09-29T21:48:47.281Z,17.52
2022-09-29T21:52:10.425Z,17.50
2022-09-29T21:55:33.450Z,20.08
2022-09-29T21:58:58.196Z,19.13
2022-09-29T22:02:22.742Z,18.83
2022-09-29T22:05:45.933Z,19.55
2022-09-29T22:09:10.181Z,18.10
2022-09-29T22:12:33.258Z,17.45
2022-09-29T22:16:03.600Z,18.00
2022-09-29T22:19:28.848Z,17.88
2022-09-29T22:22:52.277Z,16.45
2022-09-29T22:26:17.613Z,18.55
2022-09-29T22:29:40.658Z,17.45
2022-09-29T22:33:03.672Z,18.60
2022-09-29T22:36:31.282Z,18.48
2022-09-29T22:39:54.472Z,15.68
2022-09-29T22:43:18.214Z,15.95
2022-09-29T22:46:41.318Z,16.13
2022-09-29T22:50:04.822Z,16.02
2022-09-29T22:53:29.464Z,16.25
2022-09-29T22:56:52.489Z,15.05
2022-09-29T23:00:15.563Z,16.50
2022-09-29T23:03:38.740Z,16.77
2022-09-29T23:07:02.300Z,17.60
2022-09-29T23:10:27.056Z,15.90
2022-09-29T23:13:50.110Z,15.23
2022-09-29T23:17:13.184Z,15.70
2022-09-29T23:20:36.212Z,16.15
2022-09-29T23:24:00.764Z,15.63
2022-09-29T23:27:25.490Z,16.85
2022-09-29T23:30:48.519Z,14.93
2022-09-29T23:34:13.618Z,15.60
2022-09-29T23:37:50.493Z,15.90
2022-09-29T23:41:13.882Z,16.13
2022-09-29T23:44:40.677Z,16.45
2022-09-29T23:48:04.410Z,14.57
2022-09-29T23:51:27.488Z,15.60
2022-09-29T23:54:50.509Z,16.95
2022-09-29T23:58:13.525Z,14.80
